sensor_id;sensor_type;location;lat;lon;timestamp;P1;durP1;ratioP1;P2;durP2;ratioP2
42704;SDS011;28342;42.594;23.414;2023-05-07T00:00:35;6.32;;;4.55;;
42704;SDS011;28342;42.594;23.414;2023-05-07T00:03:00;6.93;;;4.32;;
42704;SDS011;28342;42.594;23.414;2023-05-07T00:05:26;5.15;;;3.78;;
42704;SDS011;28342;42.594;23.414;2023-05-07T00:07:51;8.32;;;4.22;;
42704;SDS011;28342;42.594;23.414;2023-05-07T00:10:20;9.20;;;4.10;;
42704;SDS011;28342;42.594;23.414;2023-05-07T00:12:45;5.88;;;4.20;;
42704;SDS011;28342;42.594;23.414;2023-05-07T00:15:11;7.22;;;4.63;;
42704;SDS011;28342;42.594;23.414;2023-05-07T00:17:36;6.82;;;4.30;;
42704;SDS011;28342;42.594;23.414;2023-05-07T00:20:02;6.45;;;4.13;;
42704;SDS011;28342;42.594;23.414;2023-05-07T00:22:29;9.73;;;4.63;;
42704;SDS011;28342;42.594;23.414;2023-05-07T00:24:55;5.82;;;4.13;;
42704;SDS011;28342;42.594;23.414;2023-05-07T00:27:21;5.10;;;3.92;;
42704;SDS011;28342;42.594;23.414;2023-05-07T00:29:47;6.60;;;4.53;;
42704;SDS011;28342;42.594;23.414;2023-05-07T00:32:13;6.22;;;3.45;;
42704;SDS011;28342;42.594;23.414;2023-05-07T00:34:38;4.90;;;3.72;;
42704;SDS011;28342;42.594;23.414;2023-05-07T00:37:04;5.10;;;3.60;;
42704;SDS011;28342;42.594;23.414;2023-05-07T00:39:32;7.05;;;4.28;;
42704;SDS011;28342;42.594;23.414;2023-05-07T00:41:58;6.40;;;3.97;;
42704;SDS011;28342;42.594;23.414;2023-05-07T00:44:25;8.27;;;4.00;;
42704;SDS011;28342;42.594;23.414;2023-05-07T00:46:51;6.53;;;4.38;;
42704;SDS011;28342;42.594;23.414;2023-05-07T00:49:17;6.43;;;4.20;;
42704;SDS011;28342;42.594;23.414;2023-05-07T00:51:44;8.00;;;4.43;;
42704;SDS011;28342;42.594;23.414;2023-05-07T00:54:10;6.65;;;4.10;;
42704;SDS011;28342;42.594;23.414;2023-05-07T00:56:36;8.05;;;4.40;;
42704;SDS011;28342;42.594;23.414;2023-05-07T00:59:02;9.07;;;4.22;;
42704;SDS011;28342;42.594;23.414;2023-05-07T01:01:28;5.35;;;3.75;;
42704;SDS011;28342;42.594;23.414;2023-05-07T01:03:54;6.22;;;3.75;;
42704;SDS011;28342;42.594;23.414;2023-05-07T01:06:20;4.63;;;3.72;;
42704;SDS011;28342;42.594;23.414;2023-05-07T01:08:48;9.32;;;4.57;;
42704;SDS011;28342;42.594;23.414;2023-05-07T01:11:15;6.13;;;4.00;;
42704;SDS011;28342;42.594;23.414;2023-05-07T01:13:42;5.90;;;3.78;;
42704;SDS011;28342;42.594;23.414;2023-05-07T01:16:08;7.65;;;4.57;;
42704;SDS011;28342;42.594;23.414;2023-05-07T01:18:34;6.07;;;3.90;;
42704;SDS011;28342;42.594;23.414;2023-05-07T01:21:00;6.38;;;4.38;;
42704;SDS011;28342;42.594;23.414;2023-05-07T01:23:29;6.55;;;4.10;;
42704;SDS011;28342;42.594;23.414;2023-05-07T01:25:55;5.90;;;4.03;;
42704;SDS011;28342;42.594;23.414;2023-05-07T01:28:21;11.55;;;4.50;;
42704;SDS011;28342;42.594;23.414;2023-05-07T01:30:48;7.60;;;4.97;;
42704;SDS011;28342;42.594;23.414;2023-05-07T01:33:20;7.57;;;4.60;;
42704;SDS011;28342;42.594;23.414;2023-05-07T01:35:47;9.77;;;4.55;;
42704;SDS011;28342;42.594;23.414;2023-05-07T01:38:15;8.93;;;5.95;;
42704;SDS011;28342;42.594;23.414;2023-05-07T01:40:41;6.90;;;4.30;;
42704;SDS011;28342;42.594;23.414;2023-05-07T01:43:07;8.18;;;5.43;;
42704;SDS011;28342;42.594;23.414;2023-05-07T01:45:35;7.90;;;5.00;;
42704;SDS011;28342;42.594;23.414;2023-05-07T01:48:01;8.05;;;4.72;;
42704;SDS011;28342;42.594;23.414;2023-05-07T01:50:27;8.60;;;5.45;;
42704;SDS011;28342;42.594;23.414;2023-05-07T01:52:54;8.05;;;5.20;;
42704;SDS011;28342;42.594;23.414;2023-05-07T01:55:20;8.90;;;5.40;;
42704;SDS011;28342;42.594;23.414;2023-05-07T01:57:46;7.55;;;5.25;;
42704;SDS011;28342;42.594;23.414;2023-05-07T02:00:11;12.48;;;5.88;;
42704;SDS011;28342;42.594;23.414;2023-05-07T02:02:37;9.35;;;5.93;;
42704;SDS011;28342;42.594;23.414;2023-05-07T02:05:03;9.45;;;6.07;;
42704;SDS011;28342;42.594;23.414;2023-05-07T02:07:29;11.02;;;6.10;;
42704;SDS011;28342;42.594;23.414;2023-05-07T02:09:54;12.60;;;6.60;;
42704;SDS011;28342;42.594;23.414;2023-05-07T02:12:23;10.57;;;7.45;;
42704;SDS011;28342;42.594;23.414;2023-05-07T02:14:48;12.02;;;7.00;;
42704;SDS011;28342;42.594;23.414;2023-05-07T02:17:14;10.40;;;5.60;;
42704;SDS011;28342;42.594;23.414;2023-05-07T02:19:40;10.77;;;6.45;;
42704;SDS011;28342;42.594;23.414;2023-05-07T02:22:05;11.27;;;6.28;;
42704;SDS011;28342;42.594;23.414;2023-05-07T02:24:31;12.43;;;6.65;;
42704;SDS011;28342;42.594;23.414;2023-05-07T02:26:56;9.88;;;6.68;;
42704;SDS011;28342;42.594;23.414;2023-05-07T02:29:22;10.57;;;6.93;;
42704;SDS011;28342;42.594;23.414;2023-05-07T02:31:47;9.43;;;6.60;;
42704;SDS011;28342;42.594;23.414;2023-05-07T02:34:17;11.80;;;7.22;;
42704;SDS011;28342;42.594;23.414;2023-05-07T02:36:44;10.80;;;7.13;;
42704;SDS011;28342;42.594;23.414;2023-05-07T02:39:10;9.65;;;6.03;;
42704;SDS011;28342;42.594;23.414;2023-05-07T02:41:36;12.98;;;7.10;;
42704;SDS011;28342;42.594;23.414;2023-05-07T02:44:01;11.77;;;7.32;;
42704;SDS011;28342;42.594;23.414;2023-05-07T02:46:27;10.48;;;7.15;;
42704;SDS011;28342;42.594;23.414;2023-05-07T02:48:52;12.65;;;7.10;;
42704;SDS011;28342;42.594;23.414;2023-05-07T02:51:19;9.73;;;6.60;;
42704;SDS011;28342;42.594;23.414;2023-05-07T02:53:45;10.10;;;6.60;;
42704;SDS011;28342;42.594;23.414;2023-05-07T02:56:11;12.10;;;6.88;;
42704;SDS011;28342;42.594;23.414;2023-05-07T02:58:37;12.75;;;7.80;;
42704;SDS011;28342;42.594;23.414;2023-05-07T03:01:04;11.10;;;7.20;;
42704;SDS011;28342;42.594;23.414;2023-05-07T03:03:30;13.38;;;7.63;;
42704;SDS011;28342;42.594;23.414;2023-05-07T03:05:55;14.70;;;8.35;;
42704;SDS011;28342;42.594;23.414;2023-05-07T03:08:21;17.58;;;10.05;;
42704;SDS011;28342;42.594;23.414;2023-05-07T03:10:46;16.30;;;10.45;;
42704;SDS011;28342;42.594;23.414;2023-05-07T03:13:12;17.27;;;10.95;;
42704;SDS011;28342;42.594;23.414;2023-05-07T03:15:37;17.98;;;10.30;;
42704;SDS011;28342;42.594;23.414;2023-05-07T03:18:03;20.55;;;9.95;;
42704;SDS011;28342;42.594;23.414;2023-05-07T03:20:28;18.20;;;9.38;;
42704;SDS011;28342;42.594;23.414;2023-05-07T03:22:55;17.15;;;10.55;;
42704;SDS011;28342;42.594;23.414;2023-05-07T03:25:20;16.92;;;9.88;;
42704;SDS011;28342;42.594;23.414;2023-05-07T03:27:46;17.00;;;9.85;;
42704;SDS011;28342;42.594;23.414;2023-05-07T03:30:11;20.17;;;9.48;;
42704;SDS011;28342;42.594;23.414;2023-05-07T03:32:43;17.38;;;9.30;;
42704;SDS011;28342;42.594;23.414;2023-05-07T03:35:12;18.58;;;9.27;;
42704;SDS011;28342;42.594;23.414;2023-05-07T03:37:37;17.40;;;9.68;;
42704;SDS011;28342;42.594;23.414;2023-05-07T03:40:04;16.25;;;9.20;;
42704;SDS011;28342;42.594;23.414;2023-05-07T03:42:30;16.17;;;9.85;;
42704;SDS011;28342;42.594;23.414;2023-05-07T03:44:55;15.85;;;10.05;;
42704;SDS011;28342;42.594;23.414;2023-05-07T03:47:21;16.92;;;10.40;;
42704;SDS011;28342;42.594;23.414;2023-05-07T03:49:46;17.38;;;9.43;;
42704;SDS011;28342;42.594;23.414;2023-05-07T03:52:13;16.77;;;9.40;;
42704;SDS011;28342;42.594;23.414;2023-05-07T03:54:38;17.30;;;9.18;;
42704;SDS011;28342;42.594;23.414;2023-05-07T03:57:04;16.17;;;8.98;;
42704;SDS011;28342;42.594;23.414;2023-05-07T03:59:29;17.17;;;9.02;;
42704;SDS011;28342;42.594;23.414;2023-05-07T04:01:54;12.88;;;8.57;;
42704;SDS011;28342;42.594;23.414;2023-05-07T04:04:20;13.85;;;8.73;;
42704;SDS011;28342;42.594;23.414;2023-05-07T04:06:46;13.90;;;8.75;;
42704;SDS011;28342;42.594;23.414;2023-05-07T04:09:11;16.00;;;9.00;;
42704;SDS011;28342;42.594;23.414;2023-05-07T04:11:37;18.55;;;9.70;;
42704;SDS011;28342;42.594;23.414;2023-05-07T04:14:02;17.20;;;10.05;;
42704;SDS011;28342;42.594;23.414;2023-05-07T04:16:28;16.00;;;9.02;;
42704;SDS011;28342;42.594;23.414;2023-05-07T04:18:53;16.02;;;10.00;;
42704;SDS011;28342;42.594;23.414;2023-05-07T04:21:19;14.82;;;9.38;;
42704;SDS011;28342;42.594;23.414;2023-05-07T04:23:46;15.95;;;10.25;;
42704;SDS011;28342;42.594;23.414;2023-05-07T04:26:11;16.52;;;9.45;;
42704;SDS011;28342;42.594;23.414;2023-05-07T04:28:37;15.38;;;9.32;;
42704;SDS011;28342;42.594;23.414;2023-05-07T04:31:04;16.98;;;9.63;;
42704;SDS011;28342;42.594;23.414;2023-05-07T04:33:30;20.23;;;10.18;;
42704;SDS011;28342;42.594;23.414;2023-05-07T04:35:56;15.32;;;9.18;;
42704;SDS011;28342;42.594;23.414;2023-05-07T04:38:22;14.70;;;8.77;;
42704;SDS011;28342;42.594;23.414;2023-05-07T04:40:49;20.85;;;9.23;;
42704;SDS011;28342;42.594;23.414;2023-05-07T04:43:14;16.48;;;9.55;;
42704;SDS011;28342;42.594;23.414;2023-05-07T04:45:41;16.35;;;9.45;;
42704;SDS011;28342;42.594;23.414;2023-05-07T04:48:06;16.50;;;9.57;;
42704;SDS011;28342;42.594;23.414;2023-05-07T04:50:32;17.02;;;9.48;;
42704;SDS011;28342;42.594;23.414;2023-05-07T04:52:58;18.10;;;9.40;;
42704;SDS011;28342;42.594;23.414;2023-05-07T04:55:23;17.45;;;9.57;;
42704;SDS011;28342;42.594;23.414;2023-05-07T04:57:48;18.20;;;9.27;;
42704;SDS011;28342;42.594;23.414;2023-05-07T05:00:15;14.98;;;8.40;;
42704;SDS011;28342;42.594;23.414;2023-05-07T05:02:41;14.15;;;8.13;;
42704;SDS011;28342;42.594;23.414;2023-05-07T05:05:07;13.93;;;8.68;;
42704;SDS011;28342;42.594;23.414;2023-05-07T05:07:32;16.17;;;8.45;;
42704;SDS011;28342;42.594;23.414;2023-05-07T05:09:58;15.10;;;8.90;;
42704;SDS011;28342;42.594;23.414;2023-05-07T05:12:24;16.92;;;9.15;;
42704;SDS011;28342;42.594;23.414;2023-05-07T05:14:49;15.48;;;9.25;;
42704;SDS011;28342;42.594;23.414;2023-05-07T05:17:15;14.73;;;9.20;;
42704;SDS011;28342;42.594;23.414;2023-05-07T05:19:40;14.68;;;8.40;;
42704;SDS011;28342;42.594;23.414;2023-05-07T05:22:06;14.65;;;8.60;;
42704;SDS011;28342;42.594;23.414;2023-05-07T05:24:31;16.13;;;8.68;;
42704;SDS011;28342;42.594;23.414;2023-05-07T05:26:57;14.75;;;8.45;;
42704;SDS011;28342;42.594;23.414;2023-05-07T05:29:24;16.77;;;9.63;;
42704;SDS011;28342;42.594;23.414;2023-05-07T05:31:50;14.88;;;8.52;;
42704;SDS011;28342;42.594;23.414;2023-05-07T05:34:15;17.85;;;9.13;;
42704;SDS011;28342;42.594;23.414;2023-05-07T05:36:42;15.10;;;9.27;;
42704;SDS011;28342;42.594;23.414;2023-05-07T05:39:07;15.95;;;7.93;;
42704;SDS011;28342;42.594;23.414;2023-05-07T05:41:33;15.25;;;8.60;;
42704;SDS011;28342;42.594;23.414;2023-05-07T05:43:59;17.05;;;9.02;;
42704;SDS011;28342;42.594;23.414;2023-05-07T05:46:24;19.60;;;8.60;;
42704;SDS011;28342;42.594;23.414;2023-05-07T05:48:50;15.60;;;8.75;;
42704;SDS011;28342;42.594;23.414;2023-05-07T05:51:15;15.35;;;8.77;;
42704;SDS011;28342;42.594;23.414;2023-05-07T05:53:41;15.95;;;8.82;;
42704;SDS011;28342;42.594;23.414;2023-05-07T05:56:06;16.55;;;8.13;;
42704;SDS011;28342;42.594;23.414;2023-05-07T05:58:32;19.08;;;8.45;;
42704;SDS011;28342;42.594;23.414;2023-05-07T06:00:57;16.48;;;8.43;;
42704;SDS011;28342;42.594;23.414;2023-05-07T06:03:23;12.77;;;7.07;;
42704;SDS011;28342;42.594;23.414;2023-05-07T06:05:49;14.07;;;8.15;;
42704;SDS011;28342;42.594;23.414;2023-05-07T06:08:14;13.75;;;7.55;;
42704;SDS011;28342;42.594;23.414;2023-05-07T06:10:43;14.48;;;8.40;;
42704;SDS011;28342;42.594;23.414;2023-05-07T06:13:09;15.00;;;7.90;;
42704;SDS011;28342;42.594;23.414;2023-05-07T06:15:34;12.35;;;7.57;;
42704;SDS011;28342;42.594;23.414;2023-05-07T06:17:59;17.80;;;7.72;;
42704;SDS011;28342;42.594;23.414;2023-05-07T06:20:25;15.35;;;8.00;;
42704;SDS011;28342;42.594;23.414;2023-05-07T06:22:50;13.73;;;7.75;;
42704;SDS011;28342;42.594;23.414;2023-05-07T06:25:16;14.65;;;7.88;;
42704;SDS011;28342;42.594;23.414;2023-05-07T06:27:41;11.38;;;7.07;;
42704;SDS011;28342;42.594;23.414;2023-05-07T06:30:07;14.48;;;8.00;;
42704;SDS011;28342;42.594;23.414;2023-05-07T06:32:32;12.13;;;7.65;;
42704;SDS011;28342;42.594;23.414;2023-05-07T06:34:58;15.27;;;7.63;;
42704;SDS011;28342;42.594;23.414;2023-05-07T06:37:23;11.48;;;7.35;;
42704;SDS011;28342;42.594;23.414;2023-05-07T06:39:50;11.73;;;6.88;;
42704;SDS011;28342;42.594;23.414;2023-05-07T06:42:15;12.10;;;7.28;;
42704;SDS011;28342;42.594;23.414;2023-05-07T06:44:41;12.27;;;6.82;;
42704;SDS011;28342;42.594;23.414;2023-05-07T06:47:07;12.60;;;7.80;;
42704;SDS011;28342;42.594;23.414;2023-05-07T06:49:32;13.45;;;8.38;;
42704;SDS011;28342;42.594;23.414;2023-05-07T06:51:58;12.77;;;7.10;;
42704;SDS011;28342;42.594;23.414;2023-05-07T06:54:23;14.25;;;8.20;;
42704;SDS011;28342;42.594;23.414;2023-05-07T06:56:49;12.07;;;6.90;;
42704;SDS011;28342;42.594;23.414;2023-05-07T06:59:15;9.63;;;5.47;;
42704;SDS011;28342;42.594;23.414;2023-05-07T07:01:40;8.55;;;5.78;;
42704;SDS011;28342;42.594;23.414;2023-05-07T07:04:06;9.57;;;4.80;;
42704;SDS011;28342;42.594;23.414;2023-05-07T07:06:31;8.13;;;5.30;;
42704;SDS011;28342;42.594;23.414;2023-05-07T07:08:58;9.35;;;4.78;;
42704;SDS011;28342;42.594;23.414;2023-05-07T07:11:24;7.15;;;5.30;;
42704;SDS011;28342;42.594;23.414;2023-05-07T07:13:49;7.38;;;5.63;;
42704;SDS011;28342;42.594;23.414;2023-05-07T07:16:15;10.15;;;5.93;;
42704;SDS011;28342;42.594;23.414;2023-05-07T07:18:41;9.68;;;5.78;;
42704;SDS011;28342;42.594;23.414;2023-05-07T07:21:07;7.05;;;5.13;;
42704;SDS011;28342;42.594;23.414;2023-05-07T07:23:32;10.07;;;5.28;;
42704;SDS011;28342;42.594;23.414;2023-05-07T07:25:58;9.38;;;4.95;;
42704;SDS011;28342;42.594;23.414;2023-05-07T07:28:23;7.95;;;5.72;;
42704;SDS011;28342;42.594;23.414;2023-05-07T07:30:49;8.60;;;5.43;;
42704;SDS011;28342;42.594;23.414;2023-05-07T07:33:14;142.45;;;31.80;;
42704;SDS011;28342;42.594;23.414;2023-05-07T07:35:40;9.82;;;4.85;;
42704;SDS011;28342;42.594;23.414;2023-05-07T07:38:05;10.50;;;5.47;;
42704;SDS011;28342;42.594;23.414;2023-05-07T07:40:31;12.75;;;6.13;;
42704;SDS011;28342;42.594;23.414;2023-05-07T07:42:56;9.82;;;5.68;;
42704;SDS011;28342;42.594;23.414;2023-05-07T07:45:22;7.53;;;4.88;;
42704;SDS011;28342;42.594;23.414;2023-05-07T07:47:48;8.57;;;5.25;;
42704;SDS011;28342;42.594;23.414;2023-05-07T07:50:13;7.85;;;5.43;;
42704;SDS011;28342;42.594;23.414;2023-05-07T07:52:39;5.95;;;4.63;;
42704;SDS011;28342;42.594;23.414;2023-05-07T07:55:04;7.60;;;4.88;;
42704;SDS011;28342;42.594;23.414;2023-05-07T07:57:30;6.35;;;4.25;;
42704;SDS011;28342;42.594;23.414;2023-05-07T07:59:56;7.85;;;4.97;;
42704;SDS011;28342;42.594;23.414;2023-05-07T08:02:21;6.72;;;4.78;;
42704;SDS011;28342;42.594;23.414;2023-05-07T08:04:47;7.10;;;4.50;;
42704;SDS011;28342;42.594;23.414;2023-05-07T08:07:12;5.72;;;4.43;;
42704;SDS011;28342;42.594;23.414;2023-05-07T08:09:38;7.82;;;5.13;;
42704;SDS011;28342;42.594;23.414;2023-05-07T08:12:04;6.82;;;5.20;;
42704;SDS011;28342;42.594;23.414;2023-05-07T08:14:33;6.28;;;4.57;;
42704;SDS011;28342;42.594;23.414;2023-05-07T08:16:59;8.25;;;5.45;;
42704;SDS011;28342;42.594;23.414;2023-05-07T08:19:24;6.20;;;4.05;;
42704;SDS011;28342;42.594;23.414;2023-05-07T08:21:50;6.07;;;4.97;;
42704;SDS011;28342;42.594;23.414;2023-05-07T08:24:16;10.15;;;4.72;;
42704;SDS011;28342;42.594;23.414;2023-05-07T08:26:43;6.43;;;4.32;;
42704;SDS011;28342;42.594;23.414;2023-05-07T08:29:09;7.43;;;4.60;;
42704;SDS011;28342;42.594;23.414;2023-05-07T08:31:34;6.90;;;4.88;;
42704;SDS011;28342;42.594;23.414;2023-05-07T08:34:00;7.80;;;4.78;;
42704;SDS011;28342;42.594;23.414;2023-05-07T08:36:26;12.10;;;4.95;;
42704;SDS011;28342;42.594;23.414;2023-05-07T08:38:51;7.00;;;4.43;;
42704;SDS011;28342;42.594;23.414;2023-05-07T08:41:17;7.60;;;4.40;;
42704;SDS011;28342;42.594;23.414;2023-05-07T08:43:46;8.40;;;4.63;;
42704;SDS011;28342;42.594;23.414;2023-05-07T08:46:17;7.70;;;4.63;;
42704;SDS011;28342;42.594;23.414;2023-05-07T08:48:44;6.13;;;4.25;;
42704;SDS011;28342;42.594;23.414;2023-05-07T08:51:17;6.22;;;4.38;;
42704;SDS011;28342;42.594;23.414;2023-05-07T08:53:43;8.00;;;4.60;;
42704;SDS011;28342;42.594;23.414;2023-05-07T08:56:10;5.43;;;4.22;;
42704;SDS011;28342;42.594;23.414;2023-05-07T08:58:39;6.15;;;3.80;;
42704;SDS011;28342;42.594;23.414;2023-05-07T09:01:14;4.90;;;3.72;;
42704;SDS011;28342;42.594;23.414;2023-05-07T09:03:42;4.30;;;3.35;;
42704;SDS011;28342;42.594;23.414;2023-05-07T09:06:10;5.90;;;3.60;;
42704;SDS011;28342;42.594;23.414;2023-05-07T09:08:36;7.65;;;3.70;;
42704;SDS011;28342;42.594;23.414;2023-05-07T09:11:02;5.30;;;3.60;;
42704;SDS011;28342;42.594;23.414;2023-05-07T09:13:27;6.82;;;3.42;;
42704;SDS011;28342;42.594;23.414;2023-05-07T09:15:53;7.32;;;3.22;;
42704;SDS011;28342;42.594;23.414;2023-05-07T09:18:19;5.13;;;3.60;;
42704;SDS011;28342;42.594;23.414;2023-05-07T09:20:45;6.10;;;3.97;;
42704;SDS011;28342;42.594;23.414;2023-05-07T09:23:10;4.65;;;3.20;;
42704;SDS011;28342;42.594;23.414;2023-05-07T09:25:36;3.33;;;2.80;;
42704;SDS011;28342;42.594;23.414;2023-05-07T09:28:02;4.68;;;3.22;;
42704;SDS011;28342;42.594;23.414;2023-05-07T09:30:29;5.95;;;3.67;;
42704;SDS011;28342;42.594;23.414;2023-05-07T09:32:59;4.45;;;3.65;;
42704;SDS011;28342;42.594;23.414;2023-05-07T09:35:26;4.00;;;3.42;;
42704;SDS011;28342;42.594;23.414;2023-05-07T09:37:55;3.80;;;3.28;;
42704;SDS011;28342;42.594;23.414;2023-05-07T09:40:23;4.80;;;3.42;;
42704;SDS011;28342;42.594;23.414;2023-05-07T09:42:50;5.30;;;3.28;;
42704;SDS011;28342;42.594;23.414;2023-05-07T09:45:16;4.32;;;3.03;;
42704;SDS011;28342;42.594;23.414;2023-05-07T09:47:46;4.30;;;3.08;;
42704;SDS011;28342;42.594;23.414;2023-05-07T09:50:14;3.60;;;2.78;;
42704;SDS011;28342;42.594;23.414;2023-05-07T09:52:41;3.63;;;3.28;;
42704;SDS011;28342;42.594;23.414;2023-05-07T09:55:09;3.95;;;3.08;;
42704;SDS011;28342;42.594;23.414;2023-05-07T09:57:37;5.13;;;3.47;;
42704;SDS011;28342;42.594;23.414;2023-05-07T10:00:05;3.65;;;3.20;;
42704;SDS011;28342;42.594;23.414;2023-05-07T10:02:32;5.72;;;3.30;;
42704;SDS011;28342;42.594;23.414;2023-05-07T10:05:00;3.15;;;2.60;;
42704;SDS011;28342;42.594;23.414;2023-05-07T10:07:27;4.05;;;2.90;;
42704;SDS011;28342;42.594;23.414;2023-05-07T10:09:53;4.25;;;2.88;;
42704;SDS011;28342;42.594;23.414;2023-05-07T10:12:19;4.22;;;2.70;;
42704;SDS011;28342;42.594;23.414;2023-05-07T10:14:45;3.45;;;3.00;;
42704;SDS011;28342;42.594;23.414;2023-05-07T10:17:12;5.30;;;2.80;;
42704;SDS011;28342;42.594;23.414;2023-05-07T10:19:41;3.85;;;2.60;;
42704;SDS011;28342;42.594;23.414;2023-05-07T10:22:09;2.60;;;2.00;;
42704;SDS011;28342;42.594;23.414;2023-05-07T10:24:36;2.40;;;2.20;;
42704;SDS011;28342;42.594;23.414;2023-05-07T10:27:04;4.72;;;2.58;;
42704;SDS011;28342;42.594;23.414;2023-05-07T10:29:39;4.55;;;2.90;;
42704;SDS011;28342;42.594;23.414;2023-05-07T10:34:56;6.18;;;2.80;;
42704;SDS011;28342;42.594;23.414;2023-05-07T10:37:27;3.05;;;2.33;;
42704;SDS011;28342;42.594;23.414;2023-05-07T10:39:53;3.53;;;2.70;;
42704;SDS011;28342;42.594;23.414;2023-05-07T10:42:19;3.00;;;2.55;;
42704;SDS011;28342;42.594;23.414;2023-05-07T10:44:45;3.15;;;2.35;;
42704;SDS011;28342;42.594;23.414;2023-05-07T10:47:11;6.80;;;3.25;;
42704;SDS011;28342;42.594;23.414;2023-05-07T10:54:42;5.30;;;2.95;;
42704;SDS011;28342;42.594;23.414;2023-05-07T10:59:56;8.15;;;3.13;;
42704;SDS011;28342;42.594;23.414;2023-05-07T11:02:22;6.13;;;2.72;;
42704;SDS011;28342;42.594;23.414;2023-05-07T11:07:54;4.65;;;3.08;;
42704;SDS011;28342;42.594;23.414;2023-05-07T11:10:23;3.08;;;2.63;;
42704;SDS011;28342;42.594;23.414;2023-05-07T11:13:14;4.03;;;2.63;;
42704;SDS011;28342;42.594;23.414;2023-05-07T11:15:41;5.13;;;2.85;;
42704;SDS011;28342;42.594;23.414;2023-05-07T11:18:09;4.97;;;3.28;;
42704;SDS011;28342;42.594;23.414;2023-05-07T11:24:02;4.75;;;3.00;;
42704;SDS011;28342;42.594;23.414;2023-05-07T11:26:06;3.80;;;2.80;;
42704;SDS011;28342;42.594;23.414;2023-05-07T11:28:37;4.35;;;3.10;;
42704;SDS011;28342;42.594;23.414;2023-05-07T11:31:04;4.53;;;3.08;;
42704;SDS011;28342;42.594;23.414;2023-05-07T11:33:30;4.88;;;3.45;;
42704;SDS011;28342;42.594;23.414;2023-05-07T11:35:56;2.75;;;2.50;;
42704;SDS011;28342;42.594;23.414;2023-05-07T11:38:22;4.78;;;3.60;;
42704;SDS011;28342;42.594;23.414;2023-05-07T11:40:51;4.05;;;3.63;;
42704;SDS011;28342;42.594;23.414;2023-05-07T11:43:17;4.00;;;3.00;;
42704;SDS011;28342;42.594;23.414;2023-05-07T11:45:44;7.25;;;3.38;;
42704;SDS011;28342;42.594;23.414;2023-05-07T11:48:10;4.10;;;3.00;;
42704;SDS011;28342;42.594;23.414;2023-05-07T11:50:35;4.05;;;3.08;;
42704;SDS011;28342;42.594;23.414;2023-05-07T11:53:07;3.60;;;3.30;;
42704;SDS011;28342;42.594;23.414;2023-05-07T11:55:33;4.50;;;3.45;;
42704;SDS011;28342;42.594;23.414;2023-05-07T11:57:58;5.25;;;3.03;;
42704;SDS011;28342;42.594;23.414;2023-05-07T12:00:23;5.13;;;3.63;;
42704;SDS011;28342;42.594;23.414;2023-05-07T12:02:49;4.32;;;3.42;;
42704;SDS011;28342;42.594;23.414;2023-05-07T12:05:14;3.78;;;3.10;;
42704;SDS011;28342;42.594;23.414;2023-05-07T12:07:40;5.45;;;3.30;;
42704;SDS011;28342;42.594;23.414;2023-05-07T12:10:06;5.22;;;3.80;;
42704;SDS011;28342;42.594;23.414;2023-05-07T12:12:37;4.32;;;3.63;;
42704;SDS011;28342;42.594;23.414;2023-05-07T12:15:04;3.40;;;3.10;;
42704;SDS011;28342;42.594;23.414;2023-05-07T12:17:30;4.13;;;3.67;;
42704;SDS011;28342;42.594;23.414;2023-05-07T12:19:56;6.13;;;3.38;;
42704;SDS011;28342;42.594;23.414;2023-05-07T12:22:21;5.75;;;3.65;;
42704;SDS011;28342;42.594;23.414;2023-05-07T12:24:48;5.47;;;3.63;;
42704;SDS011;28342;42.594;23.414;2023-05-07T12:27:15;4.03;;;3.63;;
42704;SDS011;28342;42.594;23.414;2023-05-07T12:29:47;4.40;;;3.58;;
42704;SDS011;28342;42.594;23.414;2023-05-07T12:32:17;4.47;;;3.70;;
42704;SDS011;28342;42.594;23.414;2023-05-07T12:34:45;3.83;;;3.35;;
42704;SDS011;28342;42.594;23.414;2023-05-07T12:37:11;4.78;;;3.45;;
42704;SDS011;28342;42.594;23.414;2023-05-07T12:39:38;3.55;;;3.22;;
42704;SDS011;28342;42.594;23.414;2023-05-07T12:42:04;5.93;;;3.10;;
42704;SDS011;28342;42.594;23.414;2023-05-07T12:44:31;4.25;;;3.22;;
42704;SDS011;28342;42.594;23.414;2023-05-07T12:46:58;4.65;;;3.25;;
42704;SDS011;28342;42.594;23.414;2023-05-07T12:49:26;4.25;;;3.10;;
42704;SDS011;28342;42.594;23.414;2023-05-07T12:51:52;3.42;;;3.00;;
42704;SDS011;28342;42.594;23.414;2023-05-07T12:54:31;4.72;;;3.00;;
42704;SDS011;28342;42.594;23.414;2023-05-07T12:57:01;4.28;;;3.50;;
42704;SDS011;28342;42.594;23.414;2023-05-07T12:59:31;3.33;;;2.92;;
42704;SDS011;28342;42.594;23.414;2023-05-07T13:01:58;3.95;;;3.50;;
42704;SDS011;28342;42.594;23.414;2023-05-07T13:04:24;5.32;;;3.40;;
42704;SDS011;28342;42.594;23.414;2023-05-07T13:06:50;3.65;;;3.25;;
42704;SDS011;28342;42.594;23.414;2023-05-07T13:09:15;6.18;;;3.90;;
42704;SDS011;28342;42.594;23.414;2023-05-07T13:11:40;6.22;;;3.50;;
42704;SDS011;28342;42.594;23.414;2023-05-07T13:14:06;4.32;;;3.10;;
42704;SDS011;28342;42.594;23.414;2023-05-07T13:16:31;5.45;;;3.80;;
42704;SDS011;28342;42.594;23.414;2023-05-07T13:18:57;7.05;;;4.20;;
42704;SDS011;28342;42.594;23.414;2023-05-07T13:21:22;6.68;;;4.43;;
42704;SDS011;28342;42.594;23.414;2023-05-07T13:23:47;4.43;;;3.22;;
42704;SDS011;28342;42.594;23.414;2023-05-07T13:26:13;5.53;;;3.22;;
42704;SDS011;28342;42.594;23.414;2023-05-07T13:28:39;3.35;;;3.00;;
42704;SDS011;28342;42.594;23.414;2023-05-07T13:31:04;3.35;;;2.90;;
42704;SDS011;28342;42.594;23.414;2023-05-07T13:33:29;4.53;;;3.50;;
42704;SDS011;28342;42.594;23.414;2023-05-07T13:35:55;6.75;;;3.78;;
42704;SDS011;28342;42.594;23.414;2023-05-07T13:38:22;6.18;;;3.60;;
42704;SDS011;28342;42.594;23.414;2023-05-07T13:40:47;3.47;;;3.15;;
42704;SDS011;28342;42.594;23.414;2023-05-07T13:43:12;3.83;;;3.22;;
42704;SDS011;28342;42.594;23.414;2023-05-07T13:45:38;5.07;;;3.47;;
42704;SDS011;28342;42.594;23.414;2023-05-07T13:48:03;4.03;;;3.22;;
42704;SDS011;28342;42.594;23.414;2023-05-07T13:50:29;6.15;;;3.15;;
42704;SDS011;28342;42.594;23.414;2023-05-07T13:52:55;4.10;;;2.80;;
42704;SDS011;28342;42.594;23.414;2023-05-07T13:55:21;10.50;;;3.40;;
42704;SDS011;28342;42.594;23.414;2023-05-07T13:57:48;5.30;;;3.30;;
42704;SDS011;28342;42.594;23.414;2023-05-07T14:00:23;3.20;;;2.95;;
42704;SDS011;28342;42.594;23.414;2023-05-07T14:02:49;6.35;;;2.92;;
42704;SDS011;28342;42.594;23.414;2023-05-07T14:05:15;3.95;;;3.20;;
42704;SDS011;28342;42.594;23.414;2023-05-07T14:07:40;3.30;;;2.92;;
42704;SDS011;28342;42.594;23.414;2023-05-07T14:10:06;4.32;;;3.08;;
42704;SDS011;28342;42.594;23.414;2023-05-07T14:12:32;2.88;;;2.58;;
42704;SDS011;28342;42.594;23.414;2023-05-07T14:14:58;3.53;;;2.78;;
42704;SDS011;28342;42.594;23.414;2023-05-07T14:17:23;3.40;;;2.78;;
42704;SDS011;28342;42.594;23.414;2023-05-07T14:19:51;3.22;;;2.92;;
42704;SDS011;28342;42.594;23.414;2023-05-07T14:22:18;4.88;;;2.90;;
42704;SDS011;28342;42.594;23.414;2023-05-07T14:24:45;3.78;;;2.92;;
42704;SDS011;28342;42.594;23.414;2023-05-07T14:27:10;3.50;;;2.75;;
42704;SDS011;28342;42.594;23.414;2023-05-07T14:29:36;4.82;;;3.00;;
42704;SDS011;28342;42.594;23.414;2023-05-07T14:32:02;3.17;;;2.50;;
42704;SDS011;28342;42.594;23.414;2023-05-07T14:34:28;3.20;;;2.53;;
42704;SDS011;28342;42.594;23.414;2023-05-07T14:36:54;3.85;;;2.70;;
42704;SDS011;28342;42.594;23.414;2023-05-07T14:39:20;4.32;;;2.47;;